Time;durP1;ratioP1;P1;durP2;ratioP2;P2;SDS_P1;SDS_P2;PMS_P1;PMS_P2;Temp;Humidity;BMP_temperature;BMP_pressure;BME280_temperature;BME280_humidity;BME280_pressure;Samples;Min_cycle;Max_cycle;Signal;HPM_P1;HPM_P2
2021/03/29 00:00:48;;;;;;;5.73;2.00;;;8.40;53.20;;;;;;4971547;28;20035;-82
2021/03/29 00:03:14;;;;;;;6.67;1.90;;;8.40;53.20;;;;;;4967440;28;20032;-82
2021/03/29 00:05:41;;;;;;;3.57;2.20;;;8.30;53.30;;;;;;4960625;28;20034;-81
2021/03/29 00:08:12;;;;;;;3.83;1.90;;;8.30;53.80;;;;;;4974822;28;20067;-82
2021/03/29 00:10:39;;;;;;;9.23;2.23;;;8.30;53.30;;;;;;4967456;28;20521;-82
2021/03/29 00:13:05;;;;;;;3.80;1.80;;;8.30;53.30;;;;;;4970961;28;20041;-82
2021/03/29 00:15:36;;;;;;;3.47;2.40;;;8.20;53.40;;;;;;4973318;28;20019;-81
2021/03/29 00:18:08;;;;;;;7.13;2.47;;;8.20;53.50;;;;;;4965115;28;20031;-81
2021/03/29 00:20:35;;;;;;;5.78;2.35;;;8.20;53.50;;;;;;4972093;28;20035;-81
2021/03/29 00:23:01;;;;;;;4.63;1.90;;;8.20;53.80;;;;;;4962125;28;20039;-82
2021/03/29 00:25:30;;;;;;;7.33;2.10;;;8.20;53.90;;;;;;4940956;28;20031;-82
2021/03/29 00:27:56;;;;;;;5.37;2.30;;;8.30;54.00;;;;;;4971990;28;20563;-82
2021/03/29 00:30:29;;;;;;;5.33;1.90;;;8.40;53.70;;;;;;4975226;28;20173;-82
2021/03/29 00:32:55;;;;;;;3.35;1.60;;;8.40;53.70;;;;;;4972878;28;20376;-83
2021/03/29 00:35:23;;;;;;;4.20;2.50;;;8.30;53.40;;;;;;4972197;28;20035;-82
2021/03/29 00:37:52;;;;;;;8.63;2.60;;;8.30;53.40;;;;;;4972120;28;20026;-82
2021/03/29 00:40:19;;;;;;;7.33;2.20;;;8.20;53.50;;;;;;4972019;28;20454;-82
2021/03/29 00:42:47;;;;;;;4.10;1.87;;;8.20;53.60;;;;;;4968505;28;20031;-82
2021/03/29 00:45:18;;;;;;;4.40;1.93;;;8.20;53.40;;;;;;4975015;28;20490;-82
2021/03/29 00:47:44;;;;;;;3.93;2.17;;;8.30;53.40;;;;;;4969517;28;20035;-82
2021/03/29 00:50:11;;;;;;;3.97;2.50;;;8.30;53.20;;;;;;4970600;28;20062;-82
2021/03/29 00:52:38;;;;;;;6.93;2.40;;;8.20;53.20;;;;;;4961255;28;20032;-82
2021/03/29 00:55:07;;;;;;;6.07;2.07;;;8.10;53.30;;;;;;4955130;28;20479;-83
2021/03/29 00:57:33;;;;;;;5.10;2.07;;;8.10;53.50;;;;;;4962551;28;20031;-82
2021/03/29 01:00:00;;;;;;;4.93;2.63;;;8.20;53.60;;;;;;4962194;28;20089;-82
2021/03/29 01:02:27;;;;;;;4.40;2.17;;;8.10;53.40;;;;;;4969858;28;20105;-82
2021/03/29 01:04:52;;;;;;;6.03;2.57;;;8.10;53.60;;;;;;4973501;28;20495;-82
2021/03/29 01:07:19;;;;;;;5.13;2.57;;;8.00;53.50;;;;;;4976055;28;20090;-82
2021/03/29 01:09:47;;;;;;;4.07;2.30;;;7.90;53.70;;;;;;4967041;28;20428;-82
2021/03/29 01:12:15;;;;;;;6.93;2.40;;;7.90;53.70;;;;;;4960973;28;20027;-82
2021/03/29 01:14:47;;;;;;;4.87;1.87;;;7.90;53.70;;;;;;4958841;28;20062;-80
2021/03/29 01:17:20;;;;;;;4.05;2.20;;;7.90;53.70;;;;;;4969048;28;20031;-80
2021/03/29 01:19:46;;;;;;;5.45;1.80;;;7.80;53.60;;;;;;4972741;28;20098;-82
2021/03/29 01:22:14;;;;;;;3.90;1.80;;;7.80;53.60;;;;;;4973876;28;20146;-82
2021/03/29 01:24:47;;;;;;;3.33;2.10;;;7.90;53.60;;;;;;4967554;28;20031;-81
2021/03/29 01:27:16;;;;;;;4.40;2.17;;;7.90;53.60;;;;;;4974711;28;20062;-82
2021/03/29 01:29:43;;;;;;;3.73;1.83;;;7.90;53.60;;;;;;4971434;28;20024;-82
2021/03/29 01:32:11;;;;;;;5.43;2.40;;;7.90;53.60;;;;;;4963406;28;20031;-81
2021/03/29 01:34:39;;;;;;;5.17;2.10;;;7.80;53.30;;;;;;4954966;28;20384;-81
2021/03/29 01:37:06;;;;;;;6.37;2.83;;;7.80;53.50;;;;;;4963486;28;20030;-81
2021/03/29 01:39:33;;;;;;;7.60;2.80;;;7.80;53.50;;;;;;4974177;28;20046;-81
2021/03/29 01:42:00;;;;;;;7.07;2.20;;;7.80;53.60;;;;;;4989835;28;20042;-82
2021/03/29 01:44:26;;;;;;;5.23;3.27;;;7.70;54.30;;;;;;4986279;28;20398;-82
2021/03/29 01:46:53;;;;;;;5.90;2.77;;;7.70;53.90;;;;;;4973229;28;20027;-81
2021/03/29 01:49:21;;;;;;;3.30;2.03;;;7.80;53.90;;;;;;4973280;28;20398;-81
2021/03/29 01:51:48;;;;;;;6.83;2.60;;;7.70;53.70;;;;;;4973969;28;20117;-81
2021/03/29 01:54:15;;;;;;;6.37;2.40;;;7.60;53.90;;;;;;4974964;28;20023;-81
2021/03/29 01:56:41;;;;;;;6.97;3.60;;;7.60;53.90;;;;;;4968753;28;20617;-82
2021/03/29 01:59:07;;;;;;;5.60;2.87;;;7.60;53.90;;;;;;4975063;28;20019;-82
2021/03/29 02:01:32;;;;;;;4.37;2.83;;;7.60;54.10;;;;;;4973194;28;20078;-81
2021/03/29 02:03:59;;;;;;;4.63;2.80;;;7.60;54.20;;;;;;4972371;28;20027;-81
2021/03/29 02:06:26;;;;;;;5.87;2.60;;;7.50;54.30;;;;;;4972945;28;20512;-81
2021/03/29 02:08:54;;;;;;;3.60;2.17;;;7.50;54.50;;;;;;4973931;28;20383;-81
2021/03/29 02:11:22;;;;;;;4.33;2.47;;;7.50;54.50;;;;;;4966421;28;20035;-82
2021/03/29 02:13:51;;;;;;;8.20;2.77;;;7.50;54.40;;;;;;4965000;28;20472;-82
2021/03/29 02:16:18;;;;;;;5.33;2.80;;;7.50;54.50;;;;;;4964845;28;20023;-82
2021/03/29 02:18:58;;;;;;;6.77;3.27;;;7.50;54.50;;;;;;4970763;28;20041;-82
2021/03/29 02:21:34;;;;;;;6.20;3.27;;;7.40;54.60;;;;;;4969589;28;20027;-82
2021/03/29 02:24:00;;;;;;;4.90;2.30;;;7.30;54.70;;;;;;4969132;28;20518;-82
2021/03/29 02:26:28;;;;;;;4.27;2.43;;;7.30;54.70;;;;;;4971639;28;20361;-82
2021/03/29 02:28:56;;;;;;;5.03;2.57;;;7.30;54.70;;;;;;4984511;28;20031;-81
2021/03/29 02:31:26;;;;;;;7.13;3.20;;;7.30;54.70;;;;;;4972650;28;20027;-82
2021/03/29 02:33:53;;;;;;;5.73;2.40;;;7.30;54.80;;;;;;4965593;28;20407;-82
2021/03/29 02:36:21;;;;;;;5.80;3.37;;;7.20;54.90;;;;;;4955192;28;20035;-82
2021/03/29 02:38:48;;;;;;;6.20;2.47;;;7.20;55.00;;;;;;4973947;28;20399;-81
2021/03/29 02:41:17;;;;;;;6.33;2.70;;;7.10;55.10;;;;;;4986294;28;20023;-81
2021/03/29 02:43:45;;;;;;;9.50;3.40;;;7.00;55.10;;;;;;4973738;28;20034;-81
2021/03/29 02:46:11;;;;;;;9.50;4.20;;;7.00;55.20;;;;;;4971547;28;20432;-81
2021/03/29 02:48:40;;;;;;;6.27;3.37;;;6.90;55.20;;;;;;4969560;28;20035;-82
2021/03/29 02:51:12;;;;;;;13.80;5.90;;;6.90;55.30;;;;;;4960443;28;20514;-81
2021/03/29 02:53:43;;;;;;;7.13;3.67;;;6.90;55.40;;;;;;4954679;28;20535;-81
2021/03/29 02:56:14;;;;;;;9.70;3.90;;;6.90;55.40;;;;;;4959745;28;20031;-81
2021/03/29 02:58:43;;;;;;;7.10;3.13;;;7.00;55.30;;;;;;4961643;28;20027;-81
2021/03/29 03:01:11;;;;;;;6.20;2.47;;;7.00;55.30;;;;;;4972034;28;20038;-80
2021/03/29 03:03:39;;;;;;;5.10;2.70;;;7.00;55.20;;;;;;4959258;28;20391;-82
2021/03/29 03:06:05;;;;;;;4.30;2.80;;;7.00;55.20;;;;;;4962267;28;20093;-81
2021/03/29 03:08:35;;;;;;;6.00;3.07;;;6.90;55.30;;;;;;4975512;28;20034;-81
2021/03/29 03:11:01;;;;;;;6.77;3.20;;;6.80;55.40;;;;;;4964506;28;20026;-81
2021/03/29 03:13:28;;;;;;;9.67;3.23;;;6.80;55.40;;;;;;4971907;28;20023;-81
2021/03/29 03:15:53;;;;;;;8.43;3.60;;;6.80;55.60;;;;;;4971718;28;20015;-81
2021/03/29 03:18:19;;;;;;;8.77;4.13;;;6.80;55.50;;;;;;4965975;28;20027;-81
2021/03/29 03:20:45;;;;;;;8.33;3.63;;;6.80;55.60;;;;;;4969310;28;20026;-81
2021/03/29 03:23:16;;;;;;;8.40;3.90;;;6.80;55.60;;;;;;4954717;28;20031;-82
2021/03/29 03:25:48;;;;;;;7.60;4.10;;;6.70;55.70;;;;;;4963856;28;20391;-81
2021/03/29 03:28:16;;;;;;;16.97;6.07;;;6.70;55.70;;;;;;4968910;28;20030;-81
2021/03/29 03:30:48;;;;;;;16.33;7.23;;;6.70;55.90;;;;;;4967347;28;20027;-81
2021/03/29 03:33:16;;;;;;;14.83;7.33;;;6.70;56.00;;;;;;4969040;28;20031;-81
2021/03/29 03:35:43;;;;;;;16.53;6.33;;;6.80;56.00;;;;;;4972074;28;20436;-81
2021/03/29 03:38:17;;;;;;;10.50;5.83;;;6.70;56.00;;;;;;4963695;28;20023;-82
2021/03/29 03:40:47;;;;;;;13.53;5.90;;;6.70;56.20;;;;;;4966681;28;20551;-81
2021/03/29 03:43:17;;;;;;;13.80;7.33;;;6.70;56.30;;;;;;4969377;28;20114;-82
2021/03/29 03:45:50;;;;;;;12.40;5.13;;;6.70;56.40;;;;;;4965342;28;20033;-81
2021/03/29 03:48:18;;;;;;;12.97;6.10;;;6.70;56.40;;;;;;4968824;28;20120;-81
2021/03/29 03:50:48;;;;;;;9.60;4.00;;;6.70;56.30;;;;;;4972097;28;20024;-81
2021/03/29 03:53:15;;;;;;;9.10;4.40;;;6.60;56.30;;;;;;4962618;28;20545;-82
2021/03/29 03:55:41;;;;;;;9.70;5.03;;;6.60;56.40;;;;;;4963910;28;20031;-81
2021/03/29 03:58:11;;;;;;;8.87;3.83;;;6.50;56.50;;;;;;4968362;28;20023;-82
2021/03/29 04:00:37;;;;;;;10.27;5.80;;;6.60;56.50;;;;;;4961627;28;20064;-82
2021/03/29 04:03:02;;;;;;;9.23;5.33;;;6.60;56.40;;;;;;4963117;28;20030;-81
2021/03/29 04:05:29;;;;;;;8.00;4.60;;;6.50;56.40;;;;;;4963360;28;20106;-81
2021/03/29 04:07:57;;;;;;;9.90;3.80;;;6.60;56.50;;;;;;4969585;28;20137;-81
2021/03/29 04:10:38;;;;;;;17.23;4.83;;;6.50;56.50;;;;;;4967976;28;20032;-81
2021/03/29 04:13:10;;;;;;;8.13;3.60;;;6.40;56.60;;;;;;4966245;28;20031;-82
2021/03/29 04:15:36;;;;;;;8.70;4.00;;;6.40;56.60;;;;;;4958120;28;20114;-81
2021/03/29 04:18:02;;;;;;;9.43;4.30;;;6.40;56.60;;;;;;4962674;28;20527;-82
2021/03/29 04:20:28;;;;;;;8.43;4.10;;;6.40;56.60;;;;;;4968419;28;20039;-82
2021/03/29 04:22:54;;;;;;;10.50;5.47;;;6.40;56.60;;;;;;4965974;28;20451;-82
2021/03/29 04:25:20;;;;;;;8.23;4.80;;;6.40;56.60;;;;;;4970571;28;20411;-82
2021/03/29 04:27:45;;;;;;;13.37;5.63;;;6.40;56.40;;;;;;4970518;28;20023;-82
2021/03/29 04:30:12;;;;;;;14.50;6.90;;;6.30;56.90;;;;;;4971972;28;20030;-82
2021/03/29 04:32:39;;;;;;;12.33;5.57;;;6.30;56.70;;;;;;4952438;28;20089;-82
2021/03/29 04:35:05;;;;;;;9.83;5.03;;;6.30;56.50;;;;;;4959445;28;20391;-82
2021/03/29 04:37:31;;;;;;;12.83;4.93;;;6.20;56.70;;;;;;4963556;28;20034;-82
2021/03/29 04:39:57;;;;;;;12.37;4.87;;;6.20;56.90;;;;;;4955657;28;20376;-83
2021/03/29 04:42:23;;;;;;;11.40;5.07;;;6.10;56.80;;;;;;4959593;28;20023;-82
2021/03/29 04:44:49;;;;;;;15.03;6.10;;;6.00;56.80;;;;;;4969165;28;20035;-82
2021/03/29 04:47:14;;;;;;;13.27;5.77;;;6.00;57.20;;;;;;4970213;28;20035;-82
2021/03/29 04:49:41;;;;;;;15.03;6.40;;;6.00;57.20;;;;;;4968224;28;20403;-82
2021/03/29 04:52:08;;;;;;;10.33;5.60;;;6.00;57.20;;;;;;4966052;28;20023;-82
2021/03/29 04:54:34;;;;;;;13.03;5.73;;;6.00;57.30;;;;;;4971374;28;20115;-82
2021/03/29 04:57:00;;;;;;;17.53;7.60;;;5.90;57.40;;;;;;4968112;28;20032;-83
2021/03/29 04:59:26;;;;;;;11.67;5.30;;;5.90;57.60;;;;;;4971665;28;20547;-82
2021/03/29 05:01:52;;;;;;;12.23;5.37;;;5.90;57.70;;;;;;4973538;28;20034;-82
2021/03/29 05:04:18;;;;;;;12.03;5.67;;;5.90;57.50;;;;;;4975462;28;20102;-82
2021/03/29 05:06:43;;;;;;;10.83;5.13;;;5.90;57.40;;;;;;4967479;28;20035;-80
2021/03/29 05:09:09;;;;;;;10.10;5.10;;;5.90;57.50;;;;;;4975596;28;20034;-81
2021/03/29 05:11:46;;;;;;;10.97;5.27;;;5.90;57.50;;;;;;4974538;28;20043;-82
2021/03/29 05:14:12;;;;;;;11.10;5.40;;;5.90;57.60;;;;;;4975400;28;20034;-82
2021/03/29 05:16:38;;;;;;;9.63;5.50;;;5.80;57.40;;;;;;4975331;28;20129;-81
2021/03/29 05:19:04;;;;;;;13.80;6.63;;;5.80;57.40;;;;;;4974061;28;20406;-81
2021/03/29 05:21:30;;;;;;;10.63;6.50;;;5.90;57.60;;;;;;4974413;28;20439;-82
2021/03/29 05:23:55;;;;;;;15.63;9.13;;;5.90;57.50;;;;;;4971547;28;20506;-81
2021/03/29 05:26:21;;;;;;;11.70;7.17;;;5.90;57.50;;;;;;4960690;28;20023;-82
2021/03/29 05:28:47;;;;;;;15.13;5.47;;;5.90;57.40;;;;;;4978302;28;20035;-82
2021/03/29 05:31:12;;;;;;;9.03;4.77;;;5.90;57.50;;;;;;4968579;28;20054;-82
2021/03/29 05:33:38;;;;;;;11.90;4.57;;;5.90;57.60;;;;;;4990281;28;20055;-82
2021/03/29 05:36:07;;;;;;;10.30;5.03;;;5.80;57.50;;;;;;4974707;28;20452;-82
2021/03/29 05:38:33;;;;;;;11.57;5.57;;;5.80;57.50;;;;;;4969725;28;20019;-82
2021/03/29 05:40:58;;;;;;;12.50;5.37;;;5.80;57.50;;;;;;4966243;28;20034;-82
2021/03/29 05:43:24;;;;;;;11.00;5.30;;;5.90;57.60;;;;;;4959260;28;20055;-82
2021/03/29 05:45:51;;;;;;;11.97;5.37;;;5.90;57.60;;;;;;4959548;28;20063;-82
2021/03/29 05:48:17;;;;;;;14.77;5.60;;;5.80;57.70;;;;;;4970382;28;20439;-82
2021/03/29 05:50:43;;;;;;;8.23;5.17;;;5.80;57.70;;;;;;4973146;28;20033;-82
2021/03/29 05:53:09;;;;;;;21.63;7.10;;;5.90;57.70;;;;;;4964332;28;20042;-80
2021/03/29 05:55:38;;;;;;;13.93;6.50;;;5.90;57.60;;;;;;4980636;28;20488;-82
2021/03/29 06:00:41;;;;;;;15.60;6.43;;;5.90;57.70;;;;;;4975155;28;20022;-82
2021/03/29 06:03:35;;;;;;;21.63;7.37;;;5.80;57.70;;;;;;4969639;28;20033;-82
2021/03/29 06:06:17;;;;;;;18.37;7.40;;;5.90;57.80;;;;;;4963179;28;20027;-83
2021/03/29 06:08:47;;;;;;;9.67;6.27;;;5.80;57.80;;;;;;4961773;28;20376;-81
2021/03/29 06:11:34;;;;;;;12.17;6.63;;;5.80;57.80;;;;;;4968743;28;20055;-81
2021/03/29 06:14:18;;;;;;;17.47;6.77;;;5.90;58.00;;;;;;4971251;28;20474;-80
2021/03/29 06:16:58;;;;;;;22.57;7.17;;;6.00;57.80;;;;;;4968567;28;20117;-80
2021/03/29 06:19:35;;;;;;;16.97;7.50;;;6.00;57.70;;;;;;4972127;28;20037;-80
2021/03/29 06:22:07;;;;;;;13.63;7.20;;;6.00;57.70;;;;;;4970311;28;20019;-80
2021/03/29 06:24:53;;;;;;;15.80;8.80;;;6.10;57.90;;;;;;4967226;28;20034;-80
2021/03/29 06:27:20;;;;;;;24.90;8.70;;;6.10;58.10;;;;;;4971481;28;20034;-80
2021/03/29 06:29:45;;;;;;;18.90;7.97;;;6.10;58.00;;;;;;4960045;28;20031;-82
2021/03/29 06:32:19;;;;;;;20.30;8.83;;;6.10;57.90;;;;;;4968985;28;20152;-80
2021/03/29 06:34:46;;;;;;;21.93;8.80;;;6.20;58.10;;;;;;4954026;28;20035;-82
2021/03/29 06:37:12;;;;;;;23.07;10.80;;;6.20;58.10;;;;;;4977919;28;20118;-80
2021/03/29 06:39:39;;;;;;;18.00;9.60;;;6.20;57.90;;;;;;4967489;28;20107;-80
2021/03/29 06:42:05;;;;;;;20.90;9.43;;;6.30;57.90;;;;;;4965042;28;20038;-80
2021/03/29 06:44:36;;;;;;;28.73;10.40;;;6.40;57.80;;;;;;4979168;28;20118;-81
2021/03/29 06:47:13;;;;;;;23.10;11.83;;;6.40;57.60;;;;;;4977747;28;20042;-80
2021/03/29 06:49:42;;;;;;;23.40;10.43;;;6.50;57.60;;;;;;4969715;28;20087;-80
2021/03/29 06:52:27;;;;;;;20.93;9.77;;;6.50;57.60;;;;;;4971716;28;20026;-80
2021/03/29 06:54:54;;;;;;;20.77;8.83;;;6.60;57.60;;;;;;4971880;28;20018;-80
2021/03/29 06:57:28;;;;;;;10.30;6.50;;;6.60;57.50;;;;;;4967660;28;20027;-80
2021/03/29 06:59:55;;;;;;;13.90;7.00;;;6.70;57.60;;;;;;4976072;28;20472;-80
2021/03/29 07:02:46;;;;;;;16.33;7.43;;;6.80;57.40;;;;;;4973915;28;20391;-80
2021/03/29 07:05:13;;;;;;;11.53;6.23;;;6.80;57.30;;;;;;4971626;28;20095;-80
2021/03/29 07:07:39;;;;;;;13.87;6.00;;;6.80;57.70;;;;;;4964476;28;20396;-80
2021/03/29 07:10:07;;;;;;;8.53;5.37;;;6.90;57.00;;;;;;4960451;28;20031;-80
2021/03/29 07:12:40;;;;;;;11.63;4.90;;;7.00;56.90;;;;;;4956585;28;20057;-81
2021/03/29 07:15:07;;;;;;;;;;;7.10;56.80;;;;;;4961916;28;20034;-80
2021/03/29 07:17:36;;;;;;;13.50;5.13;;;7.10;56.50;;;;;;4971546;28;19953;-80
2021/03/29 07:20:04;;;;;;;11.70;4.27;;;7.20;56.00;;;;;;4972694;28;20038;-80
2021/03/29 07:22:31;;;;;;;8.53;4.37;;;7.30;55.70;;;;;;4971681;28;20031;-80
2021/03/29 07:25:03;;;;;;;9.47;4.20;;;7.40;55.50;;;;;;4979420;28;20380;-80
2021/03/29 07:27:31;;;;;;;12.85;4.53;;;7.40;55.10;;;;;;4962934;28;20037;-80
2021/03/29 07:29:57;;;;;;;13.73;4.97;;;7.50;54.90;;;;;;4959041;28;20036;-80
2021/03/29 07:32:34;;;;;;;8.63;4.93;;;7.60;54.70;;;;;;4960873;28;20037;-81
2021/03/29 07:35:01;;;;;;;8.63;3.60;;;7.50;54.60;;;;;;4958905;28;20066;-80
2021/03/29 07:37:35;;;;;;;10.27;3.50;;;7.60;54.50;;;;;;4956874;28;20480;-82
2021/03/29 07:43:21;;;;;;;9.77;2.87;;;7.90;53.50;;;;;;4972223;28;20109;-83
2021/03/29 07:45:50;;;;;;;5.20;2.73;;;7.90;53.20;;;;;;4988361;28;20019;-83
2021/03/29 07:48:32;;;;;;;12.83;3.73;;;8.10;52.90;;;;;;4972447;28;20054;-83
2021/03/29 07:50:59;;;;;;;8.60;2.80;;;8.20;52.10;;;;;;4968838;28;20027;-83
2021/03/29 07:53:38;;;;;;;10.93;3.30;;;8.30;51.90;;;;;;4966251;28;20545;-82
2021/03/29 07:56:04;;;;;;;11.83;3.60;;;8.50;51.40;;;;;;4966159;28;20026;-81
2021/03/29 07:58:29;;;;;;;10.33;3.53;;;8.70;51.50;;;;;;4972300;28;20031;-83
2021/03/29 08:00:56;;;;;;;12.80;3.30;;;8.90;51.40;;;;;;4972244;28;20037;-82
2021/03/29 08:03:22;;;;;;;5.03;2.90;;;9.10;51.20;;;;;;4969443;28;20407;-82
2021/03/29 08:05:52;;;;;;;7.67;3.57;;;9.30;50.80;;;;;;4970284;28;20027;-83
2021/03/29 08:08:36;;;;;;;6.50;3.23;;;9.40;50.80;;;;;;4965546;28;20051;-83
2021/03/29 08:11:10;;;;;;;11.50;3.57;;;9.70;50.70;;;;;;4977056;28;20038;-82
2021/03/29 08:13:48;;;;;;;6.77;3.50;;;9.90;50.20;;;;;;4961207;28;20027;-82
2021/03/29 08:16:16;;;;;;;12.50;3.30;;;10.10;49.60;;;;;;4965339;28;20023;-81
2021/03/29 08:19:11;;;;;;;6.40;2.90;;;10.30;49.80;;;;;;4988884;28;20019;-82
2021/03/29 08:21:51;;;;;;;10.47;3.43;;;10.60;49.20;;;;;;4969673;28;20024;-83
2021/03/29 08:24:27;;;;;;;7.70;2.80;;;10.80;48.70;;;;;;4972312;28;20059;-82
2021/03/29 08:27:03;;;;;;;7.37;2.90;;;10.90;48.10;;;;;;4974335;28;20443;-82
2021/03/29 08:29:30;;;;;;;9.47;3.40;;;11.00;47.70;;;;;;4977363;28;20035;-82
2021/03/29 08:32:02;;;;;;;14.43;3.80;;;11.10;47.40;;;;;;4975568;28;20034;-81
2021/03/29 08:34:29;;;;;;;11.27;3.13;;;11.20;47.10;;;;;;4970790;28;20035;-82
2021/03/29 08:36:58;;;;;;;8.00;2.60;;;11.40;46.80;;;;;;4972481;28;20498;-81
2021/03/29 08:39:24;;;;;;;6.37;2.80;;;11.50;47.00;;;;;;4971164;28;20023;-82
2021/03/29 08:41:51;;;;;;;13.60;3.43;;;11.90;47.00;;;;;;4976507;28;20180;-81
2021/03/29 08:44:18;;;;;;;4.23;2.50;;;12.30;46.40;;;;;;4978916;28;20494;-82
2021/03/29 08:46:46;;;;;;;8.67;2.53;;;12.50;45.70;;;;;;4968597;28;20081;-82
2021/03/29 08:49:13;;;;;;;7.40;3.10;;;12.60;45.30;;;;;;4973516;28;20023;-82
2021/03/29 08:51:39;;;;;;;5.83;2.70;;;12.80;45.00;;;;;;4973466;28;20034;-82
2021/03/29 08:54:12;;;;;;;7.43;2.80;;;12.90;44.20;;;;;;4971736;28;20031;-82
2021/03/29 08:56:41;;;;;;;;;;;12.80;43.80;;;;;;4983129;28;20391;-82
2021/03/29 08:59:09;;;;;;;5.23;1.80;;;12.80;43.90;;;;;;4994622;28;19956;-83
2021/03/29 09:01:35;;;;;;;3.90;1.70;;;12.90;43.40;;;;;;4972057;28;20023;-82
2021/03/29 09:04:05;;;;;;;5.47;2.20;;;13.00;42.60;;;;;;4960750;28;20388;-82
2021/03/29 09:06:32;;;;;;;14.63;2.17;;;13.10;41.90;;;;;;4962485;28;20035;-82
2021/03/29 09:09:21;;;;;;;7.07;2.33;;;13.30;40.70;;;;;;4974601;28;20415;-82
2021/03/29 09:11:49;;;;;;;4.30;1.97;;;13.30;39.30;;;;;;4972127;28;20487;-82
2021/03/29 09:14:16;;;;;;;7.77;2.10;;;13.50;39.50;;;;;;4986594;28;20031;-82
2021/03/29 09:16:44;;;;;;;5.80;2.00;;;13.60;38.70;;;;;;4962565;28;20043;-82
2021/03/29 09:19:15;;;;;;;7.13;2.07;;;13.60;38.20;;;;;;4961459;28;20505;-82
2021/03/29 09:21:41;;;;;;;10.40;2.37;;;13.60;37.40;;;;;;4976335;28;20045;-82
2021/03/29 09:24:19;;;;;;;4.97;2.60;;;13.70;37.00;;;;;;4975499;28;20030;-82
2021/03/29 09:27:12;;;;;;;10.50;2.20;;;13.90;36.60;;;;;;4972033;28;20027;-82
2021/03/29 09:29:39;;;;;;;6.28;1.88;;;14.10;36.30;;;;;;4965106;28;20035;-82
2021/03/29 09:32:21;;;;;;;3.17;2.07;;;14.10;36.20;;;;;;4976056;28;20506;-82
2021/03/29 09:34:52;;;;;;;4.50;1.73;;;14.30;36.00;;;;;;4975303;28;20022;-82
2021/03/29 09:37:20;;;;;;;5.87;1.67;;;14.40;35.50;;;;;;4964027;28;20087;-82
2021/03/29 09:39:47;;;;;;;5.40;1.70;;;14.50;35.00;;;;;;4971348;28;20043;-82
2021/03/29 09:42:16;;;;;;;5.80;2.00;;;14.60;34.80;;;;;;4959731;28;20030;-82
2021/03/29 09:44:44;;;;;;;10.50;1.77;;;14.60;33.90;;;;;;4981508;28;20085;-82
2021/03/29 09:47:10;;;;;;;5.13;1.90;;;14.70;33.60;;;;;;4966953;28;20058;-82
2021/03/29 09:49:50;;;;;;;5.57;2.13;;;14.80;33.20;;;;;;4974580;28;20038;-82
2021/03/29 09:52:16;;;;;;;5.33;1.50;;;14.80;32.80;;;;;;4973360;28;20093;-82
2021/03/29 09:54:48;;;;;;;6.33;1.80;;;15.00;33.20;;;;;;4975871;28;20085;-81
2021/03/29 09:57:21;;;;;;;7.73;1.87;;;15.20;32.90;;;;;;4969739;28;20486;-82
2021/03/29 09:59:47;;;;;;;3.27;1.20;;;15.40;32.80;;;;;;4975918;28;20034;-82
2021/03/29 10:02:15;;;;;;;6.27;2.20;;;15.50;32.60;;;;;;4974538;28;20042;-83
2021/03/29 10:04:43;;;;;;;6.57;1.33;;;15.60;32.60;;;;;;4974285;28;20041;-82
2021/03/29 10:07:17;;;;;;;3.40;1.80;;;15.70;32.70;;;;;;4973894;28;20058;-82
2021/03/29 10:09:47;;;;;;;3.67;1.63;;;15.90;32.50;;;;;;4975275;28;20031;-83
2021/03/29 10:12:24;;;;;;;6.80;1.50;;;15.90;32.20;;;;;;4973840;28;20049;-83
2021/03/29 10:14:50;;;;;;;3.97;2.03;;;16.00;32.20;;;;;;4970257;28;20510;-82
2021/03/29 10:17:20;;;;;;;4.25;1.50;;;16.10;32.20;;;;;;4969644;28;20050;-82
2021/03/29 10:19:47;;;;;;;6.15;1.75;;;16.30;31.60;;;;;;4973838;28;20027;-82
2021/03/29 10:22:19;;;;;;;5.25;1.58;;;16.30;31.20;;;;;;4970615;28;20093;-83
2021/03/29 10:25:15;;;;;;;6.43;1.58;;;16.30;30.50;;;;;;4954882;28;20432;-83
2021/03/29 10:27:54;;;;;;;6.15;2.00;;;16.40;30.20;;;;;;4981917;28;20039;-82
2021/03/29 10:30:20;;;;;;;6.53;1.55;;;16.50;30.40;;;;;;4978384;28;20035;-83
2021/03/29 10:32:51;;;;;;;2.95;1.50;;;16.70;30.50;;;;;;4971614;28;20111;-82
2021/03/29 10:35:18;;;;;;;4.25;1.20;;;16.90;30.40;;;;;;4968788;28;20058;-83
2021/03/29 10:37:44;;;;;;;8.40;1.80;;;17.00;30.10;;;;;;4969532;28;20029;-83
2021/03/29 10:40:12;;;;;;;3.42;1.35;;;17.10;29.90;;;;;;4969539;28;20118;-82
2021/03/29 10:42:40;;;;;;;4.65;1.48;;;17.20;29.80;;;;;;4970009;28;20026;-82
2021/03/29 10:45:08;;;;;;;4.45;1.80;;;17.20;29.70;;;;;;4955216;28;20034;-83
2021/03/29 10:47:34;;;;;;;4.63;1.40;;;17.40;29.60;;;;;;4964021;28;20039;-83
2021/03/29 10:49:59;;;;;;;3.50;1.73;;;17.40;29.40;;;;;;4955066;28;20502;-82
2021/03/29 10:52:25;;;;;;;6.70;1.92;;;17.60;29.50;;;;;;4955058;28;20051;-83
2021/03/29 10:54:51;;;;;;;3.35;1.80;;;17.70;29.50;;;;;;4969580;28;20022;-83
2021/03/29 10:57:17;;;;;;;6.35;1.88;;;17.80;29.30;;;;;;4971881;28;20042;-83
2021/03/29 10:59:43;;;;;;;6.75;2.22;;;18.00;29.30;;;;;;4972558;28;20830;-83
2021/03/29 11:02:10;;;;;;;3.10;1.38;;;18.10;29.00;;;;;;4972776;28;20038;-82
2021/03/29 11:04:35;;;;;;;4.38;1.60;;;18.10;28.70;;;;;;4962633;28;20380;-83
2021/03/29 11:07:02;;;;;;;4.25;1.63;;;18.10;29.00;;;;;;4972454;28;20061;-82
2021/03/29 11:09:27;;;;;;;4.50;1.42;;;18.40;29.20;;;;;;4988758;28;20046;-83
2021/03/29 11:11:53;;;;;;;4.28;1.50;;;18.50;28.80;;;;;;4972075;28;20019;-83
2021/03/29 11:14:20;;;;;;;6.97;1.63;;;18.60;28.30;;;;;;4971119;28;20062;-83
2021/03/29 11:16:49;;;;;;;5.00;1.80;;;18.60;28.10;;;;;;4973314;28;20030;-83
2021/03/29 11:19:15;;;;;;;9.20;2.10;;;18.70;27.60;;;;;;4972579;28;20033;-82
2021/03/29 11:21:41;;;;;;;4.15;1.20;;;18.60;27.40;;;;;;4963881;28;20117;-83
2021/03/29 11:24:07;;;;;;;9.70;1.40;;;18.60;27.60;;;;;;4972447;28;20030;-82
2021/03/29 11:26:33;;;;;;;6.43;1.80;;;18.60;27.60;;;;;;4972247;28;20031;-83
2021/03/29 11:28:58;;;;;;;5.50;1.55;;;18.60;27.50;;;;;;4968242;28;20031;-82
2021/03/29 11:31:25;;;;;;;4.25;1.95;;;18.60;27.60;;;;;;4972353;28;20034;-82
2021/03/29 11:33:53;;;;;;;3.75;1.35;;;18.70;27.60;;;;;;4964332;28;20121;-83
2021/03/29 11:36:19;;;;;;;2.65;1.80;;;18.80;27.40;;;;;;4979612;28;20088;-82
2021/03/29 11:38:46;;;;;;;6.22;2.00;;;18.70;27.60;;;;;;4967105;28;20023;-82
2021/03/29 11:41:14;;;;;;;5.20;2.00;;;18.80;28.00;;;;;;4954012;28;20082;-82
2021/03/29 11:43:39;;;;;;;6.30;1.80;;;18.80;27.90;;;;;;4968708;28;20031;-82
2021/03/29 11:46:05;;;;;;;2.67;1.58;;;18.70;27.70;;;;;;4970776;28;20037;-82
2021/03/29 11:48:31;;;;;;;7.47;1.65;;;18.80;27.70;;;;;;4956451;28;20055;-83
2021/03/29 11:50:57;;;;;;;4.93;1.55;;;18.90;27.60;;;;;;4986458;28;20121;-82
2021/03/29 11:53:23;;;;;;;6.00;1.73;;;18.90;27.50;;;;;;4982982;28;20138;-82
2021/03/29 11:55:50;;;;;;;7.25;1.70;;;19.00;27.60;;;;;;4961142;28;20031;-83
2021/03/29 11:58:15;;;;;;;4.75;1.58;;;19.00;27.80;;;;;;5004834;28;20026;-83
2021/03/29 12:05:47;;;;;;;9.10;1.80;;;19.20;28.40;;;;;;4972779;28;20027;-83
2021/03/29 12:08:20;;;;;;;9.07;2.00;;;19.20;28.30;;;;;;4967578;28;20056;-83
2021/03/29 12:13:33;;;;;;;5.50;1.63;;;19.10;28.20;;;;;;4977555;28;20399;-83
2021/03/29 12:15:59;;;;;;;8.95;1.83;;;19.20;28.50;;;;;;4976476;28;20468;-83
2021/03/29 12:21:28;;;;;;;11.93;1.95;;;19.20;28.30;;;;;;4971948;28;20584;-82
2021/03/29 12:24:13;;;;;;;8.43;1.75;;;19.30;28.30;;;;;;4976107;28;20399;-83
2021/03/29 12:26:40;;;;;;;10.52;2.03;;;19.40;28.30;;;;;;4958976;28;20035;-83
2021/03/29 12:29:08;;;;;;;6.03;1.40;;;19.50;28.50;;;;;;4970980;28;20031;-83
2021/03/29 12:31:36;;;;;;;7.63;2.22;;;19.60;28.30;;;;;;4972335;28;20084;-83
2021/03/29 12:34:03;;;;;;;8.80;1.95;;;19.70;28.60;;;;;;4971017;28;20106;-83
2021/03/29 12:36:37;;;;;;;4.20;2.00;;;19.70;28.10;;;;;;4969879;28;20041;-82
2021/03/29 12:39:30;;;;;;;5.40;1.73;;;19.80;28.00;;;;;;4974838;28;20027;-82
2021/03/29 12:41:58;;;;;;;3.08;1.40;;;19.80;27.90;;;;;;4962074;28;20038;-83
2021/03/29 12:44:26;;;;;;;2.65;1.45;;;19.80;28.10;;;;;;4968461;28;20030;-83
2021/03/29 12:46:55;;;;;;;3.72;1.67;;;19.80;28.10;;;;;;4971785;28;20063;-82
2021/03/29 12:49:22;;;;;;;4.95;1.88;;;19.80;28.00;;;;;;4978271;28;20074;-82
2021/03/29 12:51:57;;;;;;;2.38;1.63;;;19.80;27.80;;;;;;4972488;28;20035;-83
2021/03/29 12:54:28;;;;;;;6.45;1.80;;;19.90;27.50;;;;;;4971295;28;20039;-83
2021/03/29 12:56:55;;;;;;;9.50;2.00;;;19.80;27.70;;;;;;4968756;28;20027;-83
2021/03/29 12:59:25;;;;;;;5.57;1.70;;;19.80;27.70;;;;;;4957133;28;20102;-83
2021/03/29 13:01:52;;;;;;;7.75;1.65;;;19.80;27.60;;;;;;4970697;28;20118;-83
2021/03/29 13:04:31;;;;;;;4.95;1.48;;;19.90;27.60;;;;;;4958620;28;20379;-83
2021/03/29 13:07:26;;;;;;;4.90;1.65;;;19.90;27.60;;;;;;4959255;28;20085;-83
2021/03/29 13:12:48;;;;;;;6.75;2.00;;;19.90;28.00;;;;;;4955359;28;20057;-83
2021/03/29 13:15:15;;;;;;;5.82;1.48;;;19.90;27.90;;;;;;4970226;28;20027;-83
2021/03/29 13:17:41;;;;;;;7.47;1.50;;;19.90;27.60;;;;;;4968381;28;20032;-83
2021/03/29 13:20:12;;;;;;;3.17;1.38;;;19.90;27.50;;;;;;4962617;28;20503;-83